createdAt,value
2019-01-05T00:02:20.233Z,8.03
2019-01-05T00:05:08.041Z,10.07
2019-01-05T00:08:05.128Z,10.17
2019-01-05T00:10:52.121Z,9.80
2019-01-05T00:13:49.254Z,9.57
2019-01-05T00:16:36.368Z,8.33
2019-01-05T00:19:33.485Z,8.00
2019-01-05T00:22:20.320Z,9.20
2019-01-05T00:25:17.996Z,5.67
2019-01-05T00:28:06.202Z,8.43
2019-01-05T00:30:53.344Z,6.10
2019-01-05T00:33:43.039Z,5.80
2019-01-05T00:36:37.858Z,9.30
2019-01-05T00:39:24.887Z,9.90
2019-01-05T00:42:12.302Z,6.17
2019-01-05T00:44:59.022Z,5.03
2019-01-05T00:47:59.805Z,8.03
2019-01-05T00:50:51.774Z,5.23
2019-01-05T00:53:39.948Z,7.27
2019-01-05T00:56:31.237Z,7.40
2019-01-05T00:59:18.188Z,5.77
2019-01-05T01:02:05.460Z,7.07
2019-01-05T01:04:55.462Z,8.50
2019-01-05T01:07:58.997Z,8.57
2019-01-05T01:10:53.113Z,9.00
2019-01-05T01:13:53.217Z,8.40
2019-01-05T01:16:42.569Z,6.77
2019-01-05T01:19:36.521Z,6.70
2019-01-05T01:22:33.593Z,7.13
2019-01-05T01:25:24.821Z,6.30
2019-01-05T01:28:28.253Z,5.63
2019-01-05T01:31:19.496Z,7.07
2019-01-05T01:34:06.151Z,6.77
2019-01-05T01:36:46.273Z,6.10
2019-01-05T01:39:58.496Z,9.70
2019-01-05T01:43:01.754Z,6.80
2019-01-05T01:45:56.656Z,6.97
2019-01-05T01:48:53.832Z,5.90
2019-01-05T01:51:42.399Z,6.40
2019-01-05T01:54:33.644Z,6.10
2019-01-05T01:57:23.393Z,8.60
2019-01-05T02:00:24.536Z,8.47
2019-01-05T02:03:20.754Z,5.67
2019-01-05T02:06:07.414Z,5.90
2019-01-05T02:08:57.835Z,4.37
2019-01-05T02:12:04.317Z,6.17
2019-01-05T02:14:52.523Z,5.47
2019-01-05T02:18:16.048Z,5.93
2019-01-05T02:21:28.780Z,5.57
2019-01-05T02:24:45.653Z,5.23
2019-01-05T02:28:08.022Z,3.97
2019-01-05T02:31:30.182Z,4.77
2019-01-05T02:34:51.608Z,4.37
2019-01-05T02:38:15.514Z,4.70
2019-01-05T02:42:02.461Z,4.27
2019-01-05T02:45:28.691Z,4.40
2019-01-05T02:48:53.086Z,6.00
2019-01-05T02:52:34.560Z,4.13
2019-01-05T02:55:54.332Z,4.17
2019-01-05T02:59:36.497Z,2.90
2019-01-05T03:03:10.622Z,3.90
2019-01-05T03:06:44.517Z,3.83
2019-01-05T03:10:08.962Z,3.40
2019-01-05T03:13:36.916Z,3.50
2019-01-05T03:17:15.665Z,3.23
2019-01-05T03:20:41.224Z,3.60
2019-01-05T03:24:01.079Z,2.60
2019-01-05T03:27:25.341Z,3.27
2019-01-05T03:31:22.280Z,2.63
2019-01-05T03:34:33.369Z,3.60
2019-01-05T03:38:06.788Z,2.60
2019-01-05T03:41:12.057Z,3.67
2019-01-05T03:44:44.574Z,2.50
2019-01-05T03:48:14.441Z,2.20
2019-01-05T03:51:37.540Z,2.80
2019-01-05T03:54:50.656Z,3.60
2019-01-05T03:58:17.758Z,3.00
2019-01-05T04:01:48.416Z,2.63
2019-01-05T04:05:12.709Z,4.87
2019-01-05T04:08:23.753Z,3.57
2019-01-05T04:11:56.646Z,2.37
2019-01-05T04:15:37.181Z,2.00
2019-01-05T04:19:20.514Z,1.43
2019-01-05T04:23:14.194Z,2.10
2019-01-05T04:26:37.846Z,2.33
2019-01-05T04:29:49.935Z,1.37
2019-01-05T04:32:56.995Z,1.50
2019-01-05T04:36:20.738Z,2.23
2019-01-05T04:39:34.428Z,1.47
2019-01-05T04:42:58.217Z,1.47
2019-01-05T04:46:35.350Z,1.77
2019-01-05T04:50:01.781Z,2.00
2019-01-05T04:53:29.746Z,1.53
2019-01-05T04:57:03.955Z,1.50
2019-01-05T05:00:45.693Z,1.90
2019-01-05T05:04:06.668Z,1.27
2019-01-05T05:07:39.869Z,2.67
2019-01-05T05:10:59.261Z,3.73
2019-01-05T05:14:28.294Z,2.40
2019-01-05T05:18:05.582Z,1.87
2019-01-05T05:21:45.581Z,1.40
2019-01-05T05:25:02.485Z,1.10
2019-01-05T05:28:35.692Z,1.70
2019-01-05T05:31:54.715Z,2.60
2019-01-05T05:35:26.352Z,1.40
2019-01-05T05:38:57.996Z,1.63
2019-01-05T05:42:29.662Z,1.10
2019-01-05T05:45:42.853Z,1.40
2019-01-05T05:49:06.495Z,1.30
2019-01-05T05:52:49.889Z,1.90
2019-01-05T05:56:04.347Z,1.10
2019-01-05T05:59:36.822Z,1.33
2019-01-05T06:03:18.465Z,1.33
2019-01-05T06:07:04.453Z,1.27
2019-01-05T06:10:42.403Z,1.27
2019-01-05T06:14:19.565Z,2.13
2019-01-05T06:17:55.198Z,1.20
2019-01-05T06:21:34.370Z,0.93
2019-01-05T06:25:24.796Z,1.60
2019-01-05T06:29:11.898Z,1.03
2019-01-05T06:32:34.712Z,1.27
2019-01-05T06:36:02.402Z,1.40
2019-01-05T06:39:43.378Z,1.37
2019-01-05T06:43:08.537Z,0.80
2019-01-05T06:46:41.918Z,0.87
2019-01-05T06:50:26.359Z,1.20
2019-01-05T06:53:43.830Z,1.00
2019-01-05T06:56:58.566Z,0.87
2019-01-05T07:00:28.432Z,2.50
2019-01-05T07:04:08.132Z,5.73
2019-01-05T07:07:39.706Z,11.93
2019-01-05T07:10:50.801Z,4.70
2019-01-05T07:14:24.770Z,1.80
2019-01-05T07:17:47.607Z,2.70
2019-01-05T07:21:15.552Z,4.63
2019-01-05T07:24:41.629Z,0.80
2019-01-05T07:28:20.642Z,2.97
2019-01-05T07:31:51.386Z,3.43
2019-01-05T07:35:31.783Z,1.20
2019-01-05T07:39:11.870Z,4.50
2019-01-05T07:42:46.686Z,1.50
2019-01-05T07:46:14.468Z,1.07
2019-01-05T07:49:41.889Z,2.43
2019-01-05T07:53:00.233Z,1.83
2019-01-05T07:56:24.173Z,1.40
2019-01-05T08:00:03.497Z,1.63
2019-01-05T08:03:23.146Z,2.27
2019-01-05T08:06:52.714Z,1.93
2019-01-05T08:10:36.307Z,1.60
2019-01-05T08:13:52.584Z,1.27
2019-01-05T08:17:29.661Z,2.43
2019-01-05T08:21:08.519Z,1.57
2019-01-05T08:24:32.200Z,2.03
2019-01-05T08:28:19.285Z,1.60
2019-01-05T08:31:54.590Z,2.07
2019-01-05T08:35:37.134Z,3.90
2019-01-05T08:38:57.246Z,16.20
2019-01-05T08:42:39.782Z,3.83
2019-01-05T08:46:16.280Z,15.07
2019-01-05T08:49:37.553Z,22.60
2019-01-05T08:53:14.125Z,8.88
2019-01-05T08:57:07.443Z,17.07
2019-01-05T09:00:37.715Z,12.10
2019-01-05T09:03:50.926Z,10.63
2019-01-05T09:07:47.108Z,9.47
2019-01-05T09:11:13.505Z,37.23
2019-01-05T09:14:37.498Z,23.57
2019-01-05T09:18:22.018Z,20.37
2019-01-05T09:22:09.299Z,19.10
2019-01-05T09:25:51.591Z,16.67
2019-01-05T09:29:11.499Z,29.67
2019-01-05T09:32:30.148Z,27.40
2019-01-05T09:35:54.302Z,24.83
2019-01-05T09:39:31.194Z,26.37
2019-01-05T09:42:53.601Z,26.80
2019-01-05T09:46:40.543Z,27.80
2019-01-05T09:50:01.493Z,18.60
2019-01-05T09:53:31.749Z,18.83
2019-01-05T09:57:10.774Z,18.43
2019-01-05T10:00:25.856Z,17.13
2019-01-05T10:03:40.994Z,19.47
2019-01-05T10:07:18.044Z,21.47
2019-01-05T10:10:37.696Z,23.53
2019-01-05T10:14:06.298Z,18.90
2019-01-05T10:17:34.354Z,17.87
2019-01-05T10:21:18.903Z,15.03
2019-01-05T10:24:55.282Z,14.10
2019-01-05T10:28:32.541Z,20.60
2019-01-05T10:32:15.277Z,13.53
2019-01-05T10:35:25.545Z,16.73
2019-01-05T10:38:51.211Z,16.90
2019-01-05T10:42:05.135Z,20.70
2019-01-05T10:45:42.561Z,14.77
2019-01-05T10:49:15.054Z,15.30
2019-01-05T10:52:42.110Z,21.50
2019-01-05T10:56:01.877Z,20.23
2019-01-05T10:59:32.482Z,14.80
2019-01-05T11:03:12.675Z,18.60
2019-01-05T11:06:42.931Z,17.60
2019-01-05T11:10:14.772Z,17.13
2019-01-05T11:14:04.035Z,19.73
2019-01-05T11:17:15.965Z,17.23
2019-01-05T11:20:36.215Z,16.83
2019-01-05T11:24:01.906Z,14.93
2019-01-05T11:27:42.736Z,18.13
2019-01-05T11:30:53.722Z,13.13
2019-01-05T11:34:08.044Z,18.33
2019-01-05T11:38:01.147Z,15.17
2019-01-05T11:42:01.178Z,14.03
2019-01-05T11:45:30.010Z,13.87
2019-01-05T11:48:57.469Z,12.20
2019-01-05T11:52:27.126Z,15.80
2019-01-05T11:55:50.927Z,15.80
2019-01-05T11:59:24.178Z,14.03
2019-01-05T12:03:18.658Z,10.83
2019-01-05T12:06:35.120Z,12.70
2019-01-05T12:10:16.843Z,12.17
2019-01-05T12:13:50.497Z,13.03
2019-01-05T12:17:33.646Z,12.20
2019-01-05T12:20:55.380Z,10.83
2019-01-05T12:24:44.703Z,9.90
2019-01-05T12:28:20.514Z,10.30
2019-01-05T12:31:40.773Z,12.23
2019-01-05T12:35:31.065Z,12.43
2019-01-05T12:38:56.874Z,12.47
2019-01-05T12:42:24.734Z,10.27
2019-01-05T12:46:00.251Z,11.30
2019-01-05T12:49:28.106Z,11.27
2019-01-05T12:53:21.800Z,10.60
2019-01-05T12:56:45.078Z,11.83
2019-01-05T13:00:28.891Z,9.57
2019-01-05T13:03:55.162Z,10.20
2019-01-05T13:07:28.092Z,10.27
2019-01-05T13:10:48.383Z,12.17
2019-01-05T13:14:12.554Z,17.37
2019-01-05T13:17:18.385Z,11.80
2019-01-05T13:20:33.585Z,15.23
2019-01-05T13:24:03.852Z,11.60
2019-01-05T13:27:15.027Z,18.00
2019-01-05T13:31:01.179Z,15.93
2019-01-05T13:34:38.301Z,15.03
2019-01-05T13:37:59.912Z,16.37
2019-01-05T13:41:23.610Z,14.67
2019-01-05T13:45:09.592Z,13.37
2019-01-05T13:49:05.966Z,13.93
2019-01-05T13:52:45.774Z,15.87
2019-01-05T13:55:44.528Z,11.73
2019-01-05T13:58:35.440Z,11.77
2019-01-05T14:01:23.606Z,10.67
2019-01-05T14:04:06.146Z,10.50
2019-01-05T14:06:59.513Z,10.00
2019-01-05T14:09:46.130Z,12.77
2019-01-05T14:12:46.158Z,11.70
2019-01-05T14:15:34.290Z,11.57
2019-01-05T14:18:19.781Z,11.40
2019-01-05T14:21:16.971Z,11.77
2019-01-05T14:24:03.698Z,11.90
2019-01-05T14:26:51.864Z,12.83
2019-01-05T14:29:40.043Z,14.47
2019-01-05T14:32:24.526Z,12.70
2019-01-05T14:35:17.846Z,14.27
2019-01-05T14:38:15.075Z,14.43
2019-01-05T14:40:58.456Z,12.50
2019-01-05T14:43:45.181Z,13.40
2019-01-05T14:46:39.679Z,13.77
2019-01-05T14:49:27.842Z,14.47
2019-01-05T14:52:15.240Z,12.10
2019-01-05T14:55:18.353Z,12.47
2019-01-05T14:58:06.514Z,12.43
2019-01-05T15:00:54.673Z,10.67
2019-01-05T15:04:00.946Z,13.10
2019-01-05T15:07:01.350Z,12.63
2019-01-05T15:09:50.258Z,11.60
2019-01-05T15:12:47.310Z,11.57
2019-01-05T15:15:44.539Z,7.13
2019-01-05T15:18:35.632Z,6.97
2019-01-05T15:21:36.069Z,6.43
2019-01-05T15:24:37.613Z,7.57
2019-01-05T15:27:24.709Z,6.63
2019-01-05T15:30:11.635Z,7.37
2019-01-05T15:32:58.425Z,7.77
2019-01-05T15:35:46.806Z,6.83
2019-01-05T15:38:28.999Z,6.07
2019-01-05T15:41:16.044Z,6.97
2019-01-05T15:44:02.950Z,8.13
2019-01-05T15:47:03.298Z,8.23
2019-01-05T15:50:06.511Z,7.80
2019-01-05T15:52:53.521Z,10.30
2019-01-05T15:55:54.039Z,5.50
2019-01-05T15:58:41.157Z,6.30
2019-01-05T16:01:27.876Z,8.17
2019-01-05T16:04:18.773Z,9.37
2019-01-05T16:07:05.754Z,7.40
2019-01-05T16:09:54.608Z,8.30
2019-01-05T16:12:48.681Z,6.07
2019-01-05T16:15:41.443Z,7.27
2019-01-05T16:18:28.316Z,7.50
2019-01-05T16:21:18.155Z,7.30
2019-01-05T16:24:09.378Z,8.33
2019-01-05T16:27:06.736Z,7.43
2019-01-05T16:30:04.171Z,7.93
2019-01-05T16:32:51.066Z,6.57
2019-01-05T16:35:34.761Z,8.00
2019-01-05T16:38:21.450Z,8.07
2019-01-05T16:41:18.862Z,8.53
2019-01-05T16:44:08.709Z,6.40
2019-01-05T16:46:56.859Z,7.73
2019-01-05T16:49:44.036Z,9.47
2019-01-05T16:52:44.217Z,6.80
2019-01-05T16:55:40.733Z,7.13
2019-01-05T16:58:27.472Z,5.97
2019-01-05T17:01:22.581Z,7.57
2019-01-05T17:04:24.742Z,6.80
2019-01-05T17:07:11.509Z,6.67
2019-01-05T17:09:58.437Z,7.00
2019-01-05T17:12:44.422Z,7.50
2019-01-05T17:15:30.341Z,6.90
2019-01-05T17:18:19.984Z,9.57
2019-01-05T17:21:23.674Z,12.03
2019-01-05T17:24:10.653Z,9.60
2019-01-05T17:26:59.013Z,9.27
2019-01-05T17:29:46.018Z,7.97
2019-01-05T17:32:55.141Z,8.10
2019-01-05T17:35:42.135Z,7.33
2019-01-05T17:38:29.149Z,6.83
2019-01-05T17:41:13.245Z,11.50
2019-01-05T17:43:59.977Z,9.87
2019-01-05T17:46:46.916Z,8.53
2019-01-05T17:49:35.468Z,7.67
2019-01-05T17:52:20.447Z,6.90
2019-01-05T17:55:10.742Z,7.20
2019-01-05T17:57:57.557Z,7.77
2019-01-05T18:01:03.789Z,6.57
2019-01-05T18:03:54.809Z,7.37
2019-01-05T18:06:41.516Z,8.10
2019-01-05T18:09:26.841Z,5.87
2019-01-05T18:12:12.896Z,7.03
2019-01-05T18:15:07.135Z,5.90
2019-01-05T18:17:53.849Z,6.73
2019-01-05T18:20:40.842Z,6.77
2019-01-05T18:23:41.334Z,8.07
2019-01-05T18:26:28.253Z,6.90
2019-01-05T18:29:25.239Z,7.70
2019-01-05T18:32:28.906Z,9.17
2019-01-05T18:35:22.777Z,7.67
2019-01-05T18:38:14.084Z,9.13
2019-01-05T18:41:11.527Z,11.05
2019-01-05T18:43:58.201Z,7.80
2019-01-05T18:46:45.106Z,8.27
2019-01-05T18:49:28.333Z,22.50
2019-01-05T18:52:15.146Z,21.27
2019-01-05T18:55:03.997Z,8.60
2019-01-05T18:57:50.912Z,6.90
2019-01-05T19:00:39.108Z,12.00
2019-01-05T19:03:27.252Z,6.40
2019-01-05T19:06:27.130Z,7.47
2019-01-05T19:09:18.324Z,6.93
2019-01-05T19:12:08.765Z,7.53
2019-01-05T19:14:53.495Z,6.33
2019-01-05T19:17:40.435Z,6.23
2019-01-05T19:20:27.453Z,7.47
2019-01-05T19:23:15.677Z,7.27
2019-01-05T19:26:19.164Z,6.40
2019-01-05T19:29:06.157Z,5.40
2019-01-05T19:31:51.497Z,6.47
2019-01-05T19:34:48.764Z,8.63
2019-01-05T19:37:49.015Z,6.00
2019-01-05T19:40:39.948Z,6.13
2019-01-05T19:43:29.801Z,7.27
2019-01-05T19:46:13.770Z,6.47
2019-01-05T19:48:58.273Z,5.87
2019-01-05T19:51:59.256Z,5.93
2019-01-05T19:54:46.076Z,6.30
2019-01-05T19:57:43.334Z,5.73
2019-01-05T20:00:37.624Z,7.43
2019-01-05T20:03:24.583Z,7.53
2019-01-05T20:06:22.821Z,7.50
2019-01-05T20:09:17.282Z,9.63
2019-01-05T20:12:05.442Z,8.77
2019-01-05T20:14:57.273Z,6.90
2019-01-05T20:18:00.508Z,7.03
2019-01-05T20:20:47.483Z,14.53
2019-01-05T20:23:28.163Z,11.47
2019-01-05T20:26:20.271Z,10.27
2019-01-05T20:29:07.234Z,10.70
2019-01-05T20:32:13.750Z,12.93
2019-01-05T20:35:00.787Z,11.03
2019-01-05T20:37:46.796Z,12.97
2019-01-05T20:40:33.598Z,14.33
2019-01-05T20:43:30.901Z,14.73
2019-01-05T20:46:37.164Z,11.13
2019-01-05T20:49:23.864Z,11.17
2019-01-05T20:52:27.245Z,6.97
2019-01-05T20:55:15.453Z,11.90
2019-01-05T20:58:02.187Z,11.87
2019-01-05T21:00:56.182Z,7.97
2019-01-05T21:03:44.404Z,8.17
2019-01-05T21:06:31.125Z,10.87
2019-01-05T21:09:17.769Z,8.03
2019-01-05T21:12:04.793Z,8.63
2019-01-05T21:14:58.783Z,15.27
2019-01-05T21:17:50.044Z,7.43
2019-01-05T21:20:38.343Z,7.30
2019-01-05T21:23:35.863Z,6.93
2019-01-05T21:26:39.372Z,8.10
2019-01-05T21:29:33.454Z,8.60
2019-01-05T21:32:21.386Z,6.83
2019-01-05T21:35:15.654Z,8.07
2019-01-05T21:38:02.358Z,8.83
2019-01-05T21:41:09.053Z,7.87
2019-01-05T21:44:12.279Z,9.57
2019-01-05T21:46:56.046Z,8.10
2019-01-05T21:49:50.205Z,7.33
2019-01-05T21:52:49.703Z,7.70
2019-01-05T21:55:47.210Z,10.00
2019-01-05T21:58:36.233Z,8.90
2019-01-05T22:01:21.792Z,9.30
2019-01-05T22:04:06.511Z,8.93
2019-01-05T22:06:53.960Z,7.83
2019-01-05T22:09:40.855Z,9.03
2019-01-05T22:12:27.572Z,7.67
2019-01-05T22:15:18.868Z,8.77
2019-01-05T22:18:08.077Z,9.13
2019-01-05T22:21:15.353Z,8.73
2019-01-05T22:24:19.246Z,8.80
2019-01-05T22:27:08.762Z,11.43
2019-01-05T22:30:03.702Z,12.63
2019-01-05T22:32:48.418Z,11.60
2019-01-05T22:35:51.868Z,13.50
2019-01-05T22:38:38.499Z,11.10
2019-01-05T22:41:27.118Z,9.20
2019-01-05T22:44:15.021Z,9.53
2019-01-05T22:47:11.002Z,8.53
2019-01-05T22:49:55.482Z,10.10
2019-01-05T22:52:46.661Z,9.20
2019-01-05T22:55:41.116Z,9.73
2019-01-05T22:58:38.399Z,7.93
2019-01-05T23:01:29.610Z,9.37
2019-01-05T23:04:17.816Z,11.10
2019-01-05T23:07:16.251Z,8.63
2019-01-05T23:10:17.474Z,12.53
2019-01-05T23:13:04.442Z,11.10
2019-01-05T23:15:52.884Z,10.97
2019-01-05T23:18:39.883Z,18.67
2019-01-05T23:21:26.918Z,10.60
2019-01-05T23:24:06.598Z,13.60
2019-01-05T23:26:54.709Z,13.20
2019-01-05T23:29:46.000Z,12.57
2019-01-05T23:32:33.156Z,13.07
2019-01-05T23:35:24.094Z,15.07
2019-01-05T23:38:14.936Z,11.60
2019-01-05T23:41:14.166Z,11.80
2019-01-05T23:44:01.552Z,9.90
2019-01-05T23:46:42.869Z,15.13
2019-01-05T23:49:42.363Z,8.53
2019-01-05T23:52:28.291Z,12.67
2019-01-05T23:55:15.124Z,10.13
2019-01-05T23:58:02.070Z,11.57
